aviador You're here:

KESC Decoded Metar

ESCANABA in MI, USA
Report Time2018-07-23 14:56:00
UTC Time2018-07-23 15:46:53
Flight Rules mvfr MVFR
WindVRB at 04 kt
Visibility9999 m
Phenomena:N/A
Clouds:Overcast 018 Hf
Expected CloudBase > 2,400 ft AGL from Temp-Dew spread
Ceiling1,800 ft
Temp22°C (ISA +8)
Dew Point16°C (69% RH)
QNH1015 hPa
Density Alt1,749 ft
Elevation614 ft
Report Wrong Elevation
Raw Report
KESC 231456Z AUTO VRB04KT 10SM OVC018 22/16 A2998 RMK AO2 SLP169
T02170161 50006=

Extra information for KESC:More info

Metar Taf Metar & Taf Last 4 Metars F.Rules Stats Wind Profile Meteogram Temp Stats Airport Information Weather charts Add Link Nearby VenuesMetar ALERT Operation Metar Decoded Social comments

AIRNAV info for KESC